Time;durP1;ratioP1;P1;durP2;ratioP2;P2;SDS_P1;SDS_P2;PMS_P1;PMS_P2;Temp;Humidity;BMP_temperature;BMP_pressure;BME280_temperature;BME280_humidity;BME280_pressure;Samples;Min_cycle;Max_cycle;Signal;HPM_P1;HPM_P2
2022/01/07 00:01:51;;;;;;;6.00;2.40;;;;;;;;;;5128318;27;20221;-75
2022/01/07 00:04:18;;;;;;;8.10;2.20;;;;;;;;;;5126031;27;20197;-75
2022/01/07 00:06:46;;;;;;;6.57;2.13;;;;;;;;;;5129911;27;20217;-75
2022/01/07 00:09:13;;;;;;;5.87;2.57;;;;;;;;;;5113139;27;20288;-75
2022/01/07 00:11:42;;;;;;;5.20;2.30;;;;;;;;;;5125940;27;20233;-75
2022/01/07 00:14:09;;;;;;;6.93;2.60;;;;;;;;;;5118841;27;20280;-75
2022/01/07 00:16:36;;;;;;;6.70;2.30;;;;;;;;;;5131349;27;20235;-75
2022/01/07 00:19:03;;;;;;;5.70;2.40;;;;;;;;;;5132729;27;20285;-75
2022/01/07 00:21:30;;;;;;;4.47;2.10;;;;;;;;;;5129312;27;20283;-75
2022/01/07 00:23:58;;;;;;;5.07;2.30;;;;;;;;;;5129072;27;20243;-75
2022/01/07 00:26:25;;;;;;;6.93;2.87;;;;;;;;;;5124316;27;20309;-75
2022/01/07 00:28:53;;;;;;;5.93;2.40;;;;;;;;;;5120284;27;20283;-75
2022/01/07 00:31:21;;;;;;;5.23;2.30;;;;;;;;;;5131755;27;20553;-75
2022/01/07 00:33:48;;;;;;;6.60;2.30;;;;;;;;;;5116365;27;20285;-75
2022/01/07 00:36:15;;;;;;;6.10;2.37;;;;;;;;;;5112881;28;20194;-76
2022/01/07 00:38:42;;;;;;;3.83;2.10;;;;;;;;;;5111500;28;20288;-75
2022/01/07 00:41:10;;;;;;;4.30;1.70;;;;;;;;;;5112045;28;20290;-75
2022/01/07 00:43:37;;;;;;;5.77;2.00;;;;;;;;;;5117195;27;20233;-75
2022/01/07 00:46:05;;;;;;;2.63;1.60;;;;;;;;;;5118170;27;20233;-75
2022/01/07 00:48:32;;;;;;;5.47;1.60;;;;;;;;;;5136997;27;20207;-75
2022/01/07 00:51:00;;;;;;;6.60;1.50;;;;;;;;;;5134609;27;20283;-75
2022/01/07 00:53:27;;;;;;;5.20;1.60;;;;;;;;;;5127066;27;20266;-75
2022/01/07 00:55:54;;;;;;;5.40;1.80;;;;;;;;;;5115428;28;20300;-75
2022/01/07 00:58:21;;;;;;;3.87;1.60;;;;;;;;;;5127076;27;20228;-75
2022/01/07 01:00:48;;;;;;;5.37;1.70;;;;;;;;;;5135087;27;20235;-75
2022/01/07 01:03:17;;;;;;;5.70;1.80;;;;;;;;;;5126324;27;20291;-74
2022/01/07 01:05:45;;;;;;;5.27;1.63;;;;;;;;;;5122245;27;20354;-75
2022/01/07 01:08:13;;;;;;;5.97;1.57;;;;;;;;;;5135118;27;20221;-75
2022/01/07 01:10:40;;;;;;;5.20;1.63;;;;;;;;;;5135744;27;20233;-74
2022/01/07 01:13:07;;;;;;;4.50;1.80;;;;;;;;;;5134529;27;20340;-74
2022/01/07 01:15:34;;;;;;;3.63;1.60;;;;;;;;;;5122889;27;20297;-74
2022/01/07 01:18:01;;;;;;;4.23;1.90;;;;;;;;;;5114924;28;20276;-74
2022/01/07 01:20:31;;;;;;;7.07;1.87;;;;;;;;;;5130815;27;20716;-74
2022/01/07 01:22:59;;;;;;;5.77;1.90;;;;;;;;;;5123596;27;20205;-74
2022/01/07 01:25:26;;;;;;;4.13;1.53;;;;;;;;;;5133110;27;20279;-74
2022/01/07 01:27:53;;;;;;;4.87;1.80;;;;;;;;;;5123085;27;20225;-74
2022/01/07 01:30:20;;;;;;;5.70;1.63;;;;;;;;;;5119676;27;20297;-74
2022/01/07 01:32:48;;;;;;;5.33;1.80;;;;;;;;;;5115023;28;20225;-74
2022/01/07 01:35:16;;;;;;;7.47;1.70;;;;;;;;;;5114629;27;20289;-74
2022/01/07 01:37:45;;;;;;;5.23;1.80;;;;;;;;;;5119720;27;20273;-74
2022/01/07 01:40:12;;;;;;;4.63;1.50;;;;;;;;;;5122188;27;20285;-74
2022/01/07 01:42:40;;;;;;;6.63;1.67;;;;;;;;;;5114992;28;20614;-74
2022/01/07 01:45:08;;;;;;;4.97;1.73;;;;;;;;;;5115138;27;20197;-74
2022/01/07 01:47:35;;;;;;;3.97;1.60;;;;;;;;;;5127582;27;20303;-75
2022/01/07 01:50:02;;;;;;;8.90;2.07;;;;;;;;;;5135625;27;20289;-74
2022/01/07 01:52:29;;;;;;;7.90;1.67;;;;;;;;;;5134424;27;20204;-74
2022/01/07 01:54:58;;;;;;;6.50;1.63;;;;;;;;;;5135513;27;20295;-75
2022/01/07 01:57:25;;;;;;;6.53;1.70;;;;;;;;;;5128823;27;20328;-75
2022/01/07 01:59:52;;;;;;;6.53;1.60;;;;;;;;;;5115068;28;20288;-75
2022/01/07 02:02:19;;;;;;;6.23;1.30;;;;;;;;;;5118974;27;20284;-74
2022/01/07 02:04:46;;;;;;;7.53;1.63;;;;;;;;;;5127408;27;20284;-74
2022/01/07 02:07:14;;;;;;;7.63;1.87;;;;;;;;;;5114058;28;20314;-74
2022/01/07 02:09:41;;;;;;;6.83;1.77;;;;;;;;;;5117257;27;20697;-74
2022/01/07 02:12:11;;;;;;;9.83;1.83;;;;;;;;;;5125270;27;20202;-75
2022/01/07 02:14:38;;;;;;;5.87;1.90;;;;;;;;;;5128777;27;20280;-74
2022/01/07 02:17:06;;;;;;;9.77;2.00;;;;;;;;;;5134585;27;20283;-74
2022/01/07 02:19:35;;;;;;;6.63;1.80;;;;;;;;;;5123527;27;20229;-74
2022/01/07 02:22:02;;;;;;;6.07;2.10;;;;;;;;;;5134093;27;20284;-74
2022/01/07 02:24:29;;;;;;;7.17;1.77;;;;;;;;;;5134805;27;20208;-74
2022/01/07 02:26:57;;;;;;;7.57;1.80;;;;;;;;;;5114788;27;20261;-74
2022/01/07 02:29:25;;;;;;;7.97;1.80;;;;;;;;;;5113823;28;20285;-74
2022/01/07 02:31:53;;;;;;;8.40;2.10;;;;;;;;;;5121768;27;20248;-74
2022/01/07 02:34:20;;;;;;;6.07;1.93;;;;;;;;;;5119212;27;20231;-75
2022/01/07 02:36:48;;;;;;;10.53;1.83;;;;;;;;;;5116442;27;20399;-74
2022/01/07 02:39:16;;;;;;;9.80;1.90;;;;;;;;;;5114020;28;20301;-74
2022/01/07 02:41:43;;;;;;;7.50;2.30;;;;;;;;;;5113758;27;20288;-74
2022/01/07 02:44:10;;;;;;;7.30;2.07;;;;;;;;;;5113725;28;20288;-74
2022/01/07 02:46:37;;;;;;;8.73;1.80;;;;;;;;;;5118570;27;20664;-75
2022/01/07 02:49:09;;;;;;;9.07;2.00;;;;;;;;;;5122375;27;20228;-75
2022/01/07 02:51:36;;;;;;;5.87;2.07;;;;;;;;;;5123434;27;20285;-74
2022/01/07 02:54:05;;;;;;;11.17;2.10;;;;;;;;;;5116244;27;20236;-75
2022/01/07 02:56:32;;;;;;;6.27;1.70;;;;;;;;;;5119262;27;20305;-75
2022/01/07 02:58:59;;;;;;;8.17;2.07;;;;;;;;;;5132054;27;20288;-75
2022/01/07 03:01:26;;;;;;;7.87;2.23;;;;;;;;;;5116455;27;20260;-74
2022/01/07 03:03:54;;;;;;;6.43;2.30;;;;;;;;;;5112959;28;20290;-75
2022/01/07 03:06:21;;;;;;;9.00;2.20;;;;;;;;;;5115533;27;20286;-74
2022/01/07 03:08:49;;;;;;;12.30;2.50;;;;;;;;;;5133241;27;20216;-75
2022/01/07 03:11:18;;;;;;;7.13;2.30;;;;;;;;;;5133869;27;20289;-74
2022/01/07 03:13:45;;;;;;;8.67;2.20;;;;;;;;;;5133845;27;20825;-75
2022/01/07 03:16:12;;;;;;;9.63;2.43;;;;;;;;;;5115995;27;20288;-75
2022/01/07 03:18:40;;;;;;;7.50;2.00;;;;;;;;;;5118228;27;20282;-74
2022/01/07 03:21:07;;;;;;;5.80;1.97;;;;;;;;;;5131281;27;20802;-74
2022/01/07 03:23:36;;;;;;;7.30;1.73;;;;;;;;;;5132920;27;20296;-74
2022/01/07 03:26:03;;;;;;;9.07;2.10;;;;;;;;;;5133363;27;20201;-74
2022/01/07 03:28:31;;;;;;;6.53;2.00;;;;;;;;;;5131153;27;20227;-74
2022/01/07 03:30:59;;;;;;;10.47;2.57;;;;;;;;;;5112727;27;20204;-74
2022/01/07 03:33:26;;;;;;;8.60;2.30;;;;;;;;;;5112642;27;20193;-74
2022/01/07 03:35:53;;;;;;;9.97;2.50;;;;;;;;;;5112865;28;20619;-74
2022/01/07 03:38:21;;;;;;;9.33;2.73;;;;;;;;;;5112426;27;20229;-74
2022/01/07 03:40:48;;;;;;;10.23;2.80;;;;;;;;;;5120045;27;20202;-74
2022/01/07 03:43:15;;;;;;;10.40;3.00;;;;;;;;;;5120093;27;20280;-74
2022/01/07 03:45:44;;;;;;;10.87;3.00;;;;;;;;;;5128980;27;20239;-74
2022/01/07 03:48:11;;;;;;;8.37;2.57;;;;;;;;;;5121225;27;20304;-74
2022/01/07 03:50:39;;;;;;;8.10;2.60;;;;;;;;;;5112540;27;20224;-74
2022/01/07 03:53:06;;;;;;;7.33;2.47;;;;;;;;;;5112133;28;20297;-76
2022/01/07 03:55:34;;;;;;;10.00;2.93;;;;;;;;;;5114640;27;20221;-75
2022/01/07 03:58:02;;;;;;;10.90;2.83;;;;;;;;;;5116351;27;20289;-75
2022/01/07 04:00:32;;;;;;;14.00;2.57;;;;;;;;;;5114913;27;20328;-75
2022/01/07 04:03:01;;;;;;;12.30;2.37;;;;;;;;;;5119397;27;20208;-75
2022/01/07 04:05:28;;;;;;;8.17;1.90;;;;;;;;;;5111715;28;20198;-76
2022/01/07 04:07:55;;;;;;;12.57;1.97;;;;;;;;;;5112281;28;20332;-74
2022/01/07 04:10:23;;;;;;;11.43;2.37;;;;;;;;;;5120854;27;20235;-75
2022/01/07 04:12:50;;;;;;;11.20;2.30;;;;;;;;;;5122160;27;20284;-75
2022/01/07 04:15:17;;;;;;;10.13;2.00;;;;;;;;;;5112370;28;20285;-75
2022/01/07 04:17:45;;;;;;;10.73;2.10;;;;;;;;;;5110858;28;20288;-75
2022/01/07 04:20:15;;;;;;;13.57;2.17;;;;;;;;;;5121341;27;20654;-75
2022/01/07 04:22:42;;;;;;;12.90;2.03;;;;;;;;;;5132257;27;20604;-75
2022/01/07 04:25:12;;;;;;;10.13;2.10;;;;;;;;;;5121009;27;20296;-75
2022/01/07 04:27:40;;;;;;;10.40;2.17;;;;;;;;;;5121086;27;20208;-75
2022/01/07 04:30:07;;;;;;;12.73;2.27;;;;;;;;;;5132356;27;20589;-75
2022/01/07 04:32:37;;;;;;;13.33;2.17;;;;;;;;;;5132129;27;20280;-75
2022/01/07 04:35:04;;;;;;;14.30;2.37;;;;;;;;;;5112651;27;20610;-75
2022/01/07 04:37:33;;;;;;;12.07;2.20;;;;;;;;;;5111536;27;20269;-75
2022/01/07 04:40:00;;;;;;;8.37;1.93;;;;;;;;;;5112038;28;20752;-75
2022/01/07 04:42:28;;;;;;;11.60;2.47;;;;;;;;;;5110886;28;20722;-75
2022/01/07 04:44:55;;;;;;;9.37;2.20;;;;;;;;;;5118514;28;20668;-75
2022/01/07 04:47:22;;;;;;;14.07;2.70;;;;;;;;;;5131636;27;20236;-75
2022/01/07 04:49:50;;;;;;;14.50;2.90;;;;;;;;;;5132467;27;20283;-75
2022/01/07 04:52:17;;;;;;;10.03;2.70;;;;;;;;;;5126465;27;20224;-75
2022/01/07 04:54:46;;;;;;;14.17;2.57;;;;;;;;;;5117114;28;20608;-75
2022/01/07 04:57:13;;;;;;;14.10;2.47;;;;;;;;;;5122421;28;20304;-75
2022/01/07 04:59:40;;;;;;;13.73;2.40;;;;;;;;;;5126793;27;20287;-75
2022/01/07 05:02:07;;;;;;;9.97;2.50;;;;;;;;;;5117210;27;20239;-75
2022/01/07 05:04:35;;;;;;;7.37;2.37;;;;;;;;;;5117864;28;20289;-75
2022/01/07 05:07:02;;;;;;;10.37;2.10;;;;;;;;;;5129307;27;20193;-75
2022/01/07 05:09:29;;;;;;;9.67;2.10;;;;;;;;;;5116731;28;20304;-75
2022/01/07 05:11:57;;;;;;;11.73;2.23;;;;;;;;;;5121295;27;20225;-75
2022/01/07 05:14:25;;;;;;;12.27;2.47;;;;;;;;;;5111387;28;20670;-76
2022/01/07 05:16:52;;;;;;;6.53;2.10;;;;;;;;;;5111225;28;20284;-76
2022/01/07 05:19:19;;;;;;;10.27;2.57;;;;;;;;;;5114996;28;20217;-75
2022/01/07 05:21:46;;;;;;;10.27;2.40;;;;;;;;;;5131903;27;20295;-75
2022/01/07 05:24:13;;;;;;;11.07;2.33;;;;;;;;;;5129621;27;20284;-75
2022/01/07 05:26:40;;;;;;;10.57;2.20;;;;;;;;;;5129378;27;20193;-75
2022/01/07 05:29:09;;;;;;;11.67;2.17;;;;;;;;;;5132970;27;20321;-75
2022/01/07 05:31:36;;;;;;;10.53;2.20;;;;;;;;;;5136043;27;20402;-74
2022/01/07 05:34:03;;;;;;;12.43;3.23;;;;;;;;;;5132586;27;20235;-75
2022/01/07 05:36:31;;;;;;;10.77;3.03;;;;;;;;;;5135627;27;20284;-75
2022/01/07 05:38:58;;;;;;;13.83;3.70;;;;;;;;;;5118894;27;20235;-75
2022/01/07 05:41:25;;;;;;;15.33;3.90;;;;;;;;;;5120385;27;20257;-75
2022/01/07 05:43:52;;;;;;;13.47;2.87;;;;;;;;;;5118797;27;20232;-75
2022/01/07 05:46:21;;;;;;;8.30;2.43;;;;;;;;;;5134675;27;20197;-75
2022/01/07 05:48:48;;;;;;;12.63;2.70;;;;;;;;;;5131865;27;20699;-75
2022/01/07 05:51:16;;;;;;;9.47;2.27;;;;;;;;;;5135335;27;20235;-75
2022/01/07 05:53:43;;;;;;;10.20;2.27;;;;;;;;;;5130368;27;20220;-75
2022/01/07 05:56:11;;;;;;;12.50;2.03;;;;;;;;;;5114878;27;20247;-75
2022/01/07 05:58:38;;;;;;;7.10;1.77;;;;;;;;;;5119708;27;20286;-76
2022/01/07 06:01:05;;;;;;;12.73;2.47;;;;;;;;;;5126742;27;20272;-76
2022/01/07 06:03:35;;;;;;;13.50;2.77;;;;;;;;;;5133224;27;20200;-75
2022/01/07 06:06:02;;;;;;;15.47;2.13;;;;;;;;;;5122868;27;20193;-75
2022/01/07 06:08:29;;;;;;;11.47;2.23;;;;;;;;;;5122825;27;20223;-75
2022/01/07 06:10:56;;;;;;;10.50;2.30;;;;;;;;;;5134445;27;20236;-75
2022/01/07 06:13:24;;;;;;;11.40;2.47;;;;;;;;;;5128459;27;20214;-76
2022/01/07 06:15:51;;;;;;;9.77;2.43;;;;;;;;;;5118857;27;20284;-75
2022/01/07 06:18:18;;;;;;;8.83;2.10;;;;;;;;;;5114227;28;20258;-76
2022/01/07 06:20:47;;;;;;;8.93;2.13;;;;;;;;;;5114468;27;20283;-75
2022/01/07 06:23:14;;;;;;;7.20;2.30;;;;;;;;;;5122686;27;20801;-77
2022/01/07 06:25:44;;;;;;;9.80;2.30;;;;;;;;;;5123370;27;20705;-77
2022/01/07 06:28:11;;;;;;;13.93;2.40;;;;;;;;;;5125448;27;20223;-80
2022/01/07 06:30:38;;;;;;;12.27;2.60;;;;;;;;;;5131220;27;20239;-80
2022/01/07 06:33:05;;;;;;;12.73;2.13;;;;;;;;;;5119254;27;20283;-81
2022/01/07 06:35:33;;;;;;;8.73;1.80;;;;;;;;;;5118278;27;20289;-79
2022/01/07 06:38:01;;;;;;;9.03;2.00;;;;;;;;;;5126873;27;20250;-80
2022/01/07 06:40:28;;;;;;;8.00;2.40;;;;;;;;;;5111358;28;20281;-80
2022/01/07 06:42:56;;;;;;;12.53;3.40;;;;;;;;;;5121192;27;20230;-80
2022/01/07 06:45:23;;;;;;;11.53;2.70;;;;;;;;;;5128537;27;20196;-79
2022/01/07 06:47:50;;;;;;;11.43;2.80;;;;;;;;;;5120757;27;20224;-79
2022/01/07 06:50:17;;;;;;;11.87;3.80;;;;;;;;;;5121831;27;20202;-80
2022/01/07 06:52:45;;;;;;;12.20;3.27;;;;;;;;;;5122973;27;20283;-80
2022/01/07 06:55:14;;;;;;;14.10;4.00;;;;;;;;;;5129891;27;20282;-80
2022/01/07 06:57:41;;;;;;;12.40;4.60;;;;;;;;;;5126369;27;20288;-79
2022/01/07 07:00:09;;;;;;;13.77;4.30;;;;;;;;;;5123250;27;20319;-80
2022/01/07 07:02:36;;;;;;;13.53;5.57;;;;;;;;;;5121379;27;20643;-80
2022/01/07 07:05:04;;;;;;;15.60;5.57;;;;;;;;;;5121662;27;20223;-79
2022/01/07 07:07:31;;;;;;;15.03;5.60;;;;;;;;;;5112781;27;20688;-79
2022/01/07 07:10:00;;;;;;;9.93;4.03;;;;;;;;;;5123060;27;20282;-79
2022/01/07 07:12:31;;;;;;;10.00;4.70;;;;;;;;;;5111828;27;20324;-80
2022/01/07 07:14:59;;;;;;;13.97;5.27;;;;;;;;;;5113292;27;20603;-82
2022/01/07 07:17:26;;;;;;;13.03;4.30;;;;;;;;;;5112445;28;20285;-81
2022/01/07 07:19:53;;;;;;;12.43;3.60;;;;;;;;;;5112049;28;20736;-81
2022/01/07 07:22:20;;;;;;;11.97;2.87;;;;;;;;;;5112328;27;20659;-81
2022/01/07 07:24:47;;;;;;;11.10;2.33;;;;;;;;;;5127371;27;20633;-82
2022/01/07 07:27:15;;;;;;;8.23;2.30;;;;;;;;;;5115925;27;20287;-82
2022/01/07 07:29:43;;;;;;;11.23;2.33;;;;;;;;;;5130636;27;20313;-81
2022/01/07 07:32:11;;;;;;;11.97;2.20;;;;;;;;;;5125654;27;20808;-81
2022/01/07 07:35:01;;;;;;;11.77;2.27;;;;;;;;;;5114923;27;20200;-81
2022/01/07 07:37:28;;;;;;;13.07;2.73;;;;;;;;;;5120913;27;20289;-82
2022/01/07 07:42:48;;;;;;;15.27;2.83;;;;;;;;;;5111088;27;20188;-81
2022/01/07 07:45:30;;;;;;;8.07;2.80;;;;;;;;;;5111568;28;20194;-81
2022/01/07 07:47:57;;;;;;;9.87;2.77;;;;;;;;;;5114467;27;20669;-82
2022/01/07 07:50:25;;;;;;;14.60;3.00;;;;;;;;;;5116263;27;20209;-82
2022/01/07 07:52:52;;;;;;;13.57;3.10;;;;;;;;;;5118961;27;20690;-82
2022/01/07 07:55:19;;;;;;;9.07;2.47;;;;;;;;;;5125679;27;20726;-82
2022/01/07 07:57:47;;;;;;;10.50;2.50;;;;;;;;;;5119729;27;20209;-82
2022/01/07 08:00:14;;;;;;;12.00;2.93;;;;;;;;;;5129257;27;20313;-82
2022/01/07 08:02:43;;;;;;;10.97;2.90;;;;;;;;;;5125130;27;20647;-81
2022/01/07 08:05:11;;;;;;;13.40;2.63;;;;;;;;;;5123734;27;20228;-82
2022/01/07 08:07:38;;;;;;;13.10;2.83;;;;;;;;;;5128113;27;20283;-82
2022/01/07 08:10:06;;;;;;;10.20;2.30;;;;;;;;;;5130919;27;20314;-82
2022/01/07 08:12:52;;;;;;;13.87;2.80;;;;;;;;;;5134702;27;20286;-81
2022/01/07 08:18:05;;;;;;;15.10;2.23;;;;;;;;;;5127750;27;20578;-81
2022/01/07 08:20:33;;;;;;;16.10;3.00;;;;;;;;;;5120681;27;20286;-81
2022/01/07 08:23:02;;;;;;;10.13;3.03;;;;;;;;;;5121644;27;20290;-81
2022/01/07 08:25:29;;;;;;;12.90;2.80;;;;;;;;;;5118842;27;20238;-82
2022/01/07 08:28:00;;;;;;;14.93;2.80;;;;;;;;;;5129840;27;20193;-81
2022/01/07 08:30:35;;;;;;;11.93;2.87;;;;;;;;;;5114747;27;20215;-81
2022/01/07 08:35:48;;;;;;;12.87;2.63;;;;;;;;;;5111165;28;20199;-81
2022/01/07 08:38:15;;;;;;;11.03;3.00;;;;;;;;;;5119470;27;20294;-81
2022/01/07 08:40:42;;;;;;;11.53;2.83;;;;;;;;;;5112728;28;20232;-81
2022/01/07 08:43:10;;;;;;;11.53;2.20;;;;;;;;;;5130222;28;20240;-81
2022/01/07 08:45:37;;;;;;;8.93;2.90;;;;;;;;;;5136061;27;20286;-81
2022/01/07 08:48:04;;;;;;;9.80;3.17;;;;;;;;;;5123330;28;20277;-82
2022/01/07 08:50:31;;;;;;;9.07;2.73;;;;;;;;;;5129038;28;20311;-82
2022/01/07 08:53:01;;;;;;;9.37;2.30;;;;;;;;;;5128800;27;20227;-82
2022/01/07 08:55:28;;;;;;;8.03;2.27;;;;;;;;;;5123102;27;20197;-82
2022/01/07 08:57:55;;;;;;;7.33;2.10;;;;;;;;;;5119717;27;20229;-82
2022/01/07 09:00:24;;;;;;;8.50;4.13;;;;;;;;;;5127293;27;20311;-81
2022/01/07 09:02:51;;;;;;;9.57;4.13;;;;;;;;;;5118234;27;20664;-83
2022/01/07 09:05:18;;;;;;;10.73;5.00;;;;;;;;;;5129956;27;20192;-83
2022/01/07 09:07:46;;;;;;;13.40;5.33;;;;;;;;;;5126656;27;20288;-82
2022/01/07 09:10:14;;;;;;;11.33;3.73;;;;;;;;;;5118257;27;20305;-81
2022/01/07 09:12:41;;;;;;;9.83;3.40;;;;;;;;;;5121903;27;20225;-81
2022/01/07 09:15:09;;;;;;;6.43;2.53;;;;;;;;;;5129886;27;20272;-81
2022/01/07 09:17:36;;;;;;;10.47;2.40;;;;;;;;;;5123235;27;20201;-81
2022/01/07 09:20:05;;;;;;;7.30;2.03;;;;;;;;;;5120717;27;20285;-81
2022/01/07 09:22:32;;;;;;;8.93;2.20;;;;;;;;;;5118991;27;20194;-83
2022/01/07 09:25:00;;;;;;;7.50;2.20;;;;;;;;;;5121676;27;20194;-82
2022/01/07 09:27:28;;;;;;;7.40;2.23;;;;;;;;;;5131077;27;20223;-83
2022/01/07 09:29:55;;;;;;;7.27;2.40;;;;;;;;;;5130553;27;20309;-82
2022/01/07 09:32:23;;;;;;;6.50;1.90;;;;;;;;;;5121043;27;20232;-83
2022/01/07 09:34:50;;;;;;;7.03;2.20;;;;;;;;;;5126681;27;20555;-83
2022/01/07 09:37:17;;;;;;;5.53;2.20;;;;;;;;;;5124173;27;20630;-83
2022/01/07 09:39:44;;;;;;;5.77;1.73;;;;;;;;;;5127959;27;20240;-83
2022/01/07 09:42:11;;;;;;;6.27;1.80;;;;;;;;;;5137378;27;20201;-83
2022/01/07 09:44:41;;;;;;;5.27;1.93;;;;;;;;;;5117209;27;20553;-83
2022/01/07 09:47:11;;;;;;;5.60;1.80;;;;;;;;;;5123655;27;20288;-82
2022/01/07 09:49:41;;;;;;;7.87;1.70;;;;;;;;;;5133665;27;20224;-84
2022/01/07 09:52:09;;;;;;;3.63;1.30;;;;;;;;;;5124847;27;20200;-83
2022/01/07 09:54:37;;;;;;;6.60;1.43;;;;;;;;;;5127001;27;20292;-83
2022/01/07 09:57:06;;;;;;;4.53;1.37;;;;;;;;;;5119140;27;20312;-82
2022/01/07 09:59:34;;;;;;;7.67;1.80;;;;;;;;;;5130725;27;20600;-82
2022/01/07 10:02:03;;;;;;;5.17;1.80;;;;;;;;;;5118015;27;20324;-82
2022/01/07 10:04:32;;;;;;;4.63;1.53;;;;;;;;;;5130906;27;20229;-83
2022/01/07 10:07:13;;;;;;;3.77;1.50;;;;;;;;;;5120213;27;20282;-82
2022/01/07 10:09:40;;;;;;;4.63;1.27;;;;;;;;;;5122352;27;20308;-82
2022/01/07 10:12:08;;;;;;;4.03;1.33;;;;;;;;;;5122125;27;20985;-82
2022/01/07 10:14:36;;;;;;;5.03;1.10;;;;;;;;;;5124229;27;21800;-82
2022/01/07 10:17:05;;;;;;;4.60;1.30;;;;;;;;;;5119321;27;20276;-82
2022/01/07 10:19:33;;;;;;;4.53;1.10;;;;;;;;;;5119739;27;20285;-83
2022/01/07 10:22:00;;;;;;;5.10;1.77;;;;;;;;;;5121551;27;20216;-82
2022/01/07 10:24:28;;;;;;;3.70;1.20;;;;;;;;;;5122063;27;20736;-82
2022/01/07 10:27:16;;;;;;;5.40;1.73;;;;;;;;;;5126054;27;20356;-82
2022/01/07 10:32:29;;;;;;;6.50;2.17;;;;;;;;;;5115279;28;20198;-82
2022/01/07 10:35:07;;;;;;;7.33;1.83;;;;;;;;;;5112617;28;20681;-82
2022/01/07 10:37:34;;;;;;;6.27;2.00;;;;;;;;;;5112436;28;20636;-82
2022/01/07 10:40:01;;;;;;;4.70;1.50;;;;;;;;;;5113625;28;20217;-83
2022/01/07 10:42:28;;;;;;;7.47;1.80;;;;;;;;;;5116263;27;20673;-83
2022/01/07 10:44:59;;;;;;;5.87;1.70;;;;;;;;;;5129059;27;20664;-83
2022/01/07 10:47:29;;;;;;;8.10;1.97;;;;;;;;;;5116101;27;20629;-82
2022/01/07 10:50:11;;;;;;;5.20;1.50;;;;;;;;;;5130275;27;20223;-82
2022/01/07 10:52:38;;;;;;;5.50;1.60;;;;;;;;;;5120209;27;20208;-82
2022/01/07 10:55:08;;;;;;;7.20;1.60;;;;;;;;;;5119240;27;20292;-82
2022/01/07 10:57:41;;;;;;;6.33;1.60;;;;;;;;;;5127620;27;20218;-83
2022/01/07 11:00:09;;;;;;;7.40;1.90;;;;;;;;;;5122428;27;20306;-82
2022/01/07 11:02:39;;;;;;;6.83;1.63;;;;;;;;;;5117109;27;20691;-82
2022/01/07 11:05:06;;;;;;;7.70;1.60;;;;;;;;;;5119248;27;20356;-83
2022/01/07 11:07:34;;;;;;;8.87;2.10;;;;;;;;;;5125167;27;20288;-83
2022/01/07 11:10:01;;;;;;;7.27;1.77;;;;;;;;;;5121066;27;20547;-83
2022/01/07 11:12:30;;;;;;;6.63;1.83;;;;;;;;;;5117911;27;20197;-83
2022/01/07 11:14:58;;;;;;;7.87;1.70;;;;;;;;;;5117690;27;20527;-83
2022/01/07 11:17:26;;;;;;;7.90;1.67;;;;;;;;;;5132850;27;20212;-83
2022/01/07 11:19:55;;;;;;;8.20;1.60;;;;;;;;;;5117009;27;20201;-83
2022/01/07 11:22:23;;;;;;;6.97;1.60;;;;;;;;;;5135236;27;20287;-83
2022/01/07 11:24:53;;;;;;;4.77;1.70;;;;;;;;;;5120796;27;20197;-83
2022/01/07 11:27:21;;;;;;;6.50;1.50;;;;;;;;;;5123198;27;20205;-83
2022/01/07 11:30:11;;;;;;;8.97;1.73;;;;;;;;;;5116305;27;20246;-83
2022/01/07 11:32:39;;;;;;;8.77;1.57;;;;;;;;;;5132761;27;20209;-83
2022/01/07 11:35:25;;;;;;;8.27;1.63;;;;;;;;;;5126633;27;20221;-83
2022/01/07 11:37:54;;;;;;;7.90;1.60;;;;;;;;;;5128538;27;20257;-83
2022/01/07 11:40:44;;;;;;;7.80;1.63;;;;;;;;;;5119451;27;20277;-83
2022/01/07 11:43:28;;;;;;;7.83;1.67;;;;;;;;;;5115035;27;20281;-83
2022/01/07 11:45:55;;;;;;;6.93;1.83;;;;;;;;;;5113257;28;20190;-82
2022/01/07 11:48:24;;;;;;;6.80;1.80;;;;;;;;;;5136586;27;20200;-83
2022/01/07 11:51:06;;;;;;;8.40;2.07;;;;;;;;;;5118192;27;20225;-82
2022/01/07 11:53:48;;;;;;;6.30;1.70;;;;;;;;;;5114561;27;20297;-82
2022/01/07 11:56:18;;;;;;;12.63;2.30;;;;;;;;;;5123257;27;20764;-82
2022/01/07 11:58:47;;;;;;;9.63;2.33;;;;;;;;;;5116880;27;20209;-82
2022/01/07 12:01:23;;;;;;;7.93;1.80;;;;;;;;;;5117087;27;20246;-83
2022/01/07 12:03:53;;;;;;;9.73;2.10;;;;;;;;;;5123185;27;20244;-82
2022/01/07 12:06:35;;;;;;;10.27;2.37;;;;;;;;;;5124046;27;20225;-82
2022/01/07 12:09:11;;;;;;;8.90;2.40;;;;;;;;;;5127103;27;20212;-82
2022/01/07 12:11:41;;;;;;;9.53;2.23;;;;;;;;;;5116804;27;20217;-82
2022/01/07 12:14:10;;;;;;;10.10;2.30;;;;;;;;;;5122922;27;20228;-82
2022/01/07 12:16:38;;;;;;;11.67;2.40;;;;;;;;;;5116938;27;20206;-84
2022/01/07 12:19:27;;;;;;;10.47;2.20;;;;;;;;;;5131865;27;20228;-83
2022/01/07 12:21:55;;;;;;;10.50;2.00;;;;;;;;;;5113704;27;20229;-82
2022/01/07 12:24:23;;;;;;;12.77;2.23;;;;;;;;;;5130931;27;20276;-82
2022/01/07 12:27:04;;;;;;;12.53;2.27;;;;;;;;;;5121294;27;20233;-82
2022/01/07 12:29:33;;;;;;;11.03;2.73;;;;;;;;;;5131889;27;20752;-82
2022/01/07 12:32:02;;;;;;;9.97;2.20;;;;;;;;;;5115163;27;20281;-82
2022/01/07 12:34:31;;;;;;;10.57;2.17;;;;;;;;;;5118079;27;20225;-84
2022/01/07 12:36:59;;;;;;;9.67;2.43;;;;;;;;;;5126986;27;20190;-84
2022/01/07 12:39:27;;;;;;;12.43;3.10;;;;;;;;;;5111888;27;20301;-84
2022/01/07 12:41:54;;;;;;;9.20;2.23;;;;;;;;;;5125258;28;20189;-84
2022/01/07 12:44:24;;;;;;;12.73;2.63;;;;;;;;;;5119923;28;20280;-84
2022/01/07 12:46:53;;;;;;;9.17;1.83;;;;;;;;;;5114879;28;20294;-84
2022/01/07 12:49:20;;;;;;;8.20;1.80;;;;;;;;;;5119831;27;20225;-84
2022/01/07 12:51:59;;;;;;;12.80;2.43;;;;;;;;;;5116645;28;20213;-84
2022/01/07 12:54:27;;;;;;;9.57;2.33;;;;;;;;;;5120145;27;20731;-83
2022/01/07 12:56:54;;;;;;;10.10;1.90;;;;;;;;;;5120105;28;20218;-84
2022/01/07 12:59:25;;;;;;;10.77;2.60;;;;;;;;;;5119729;28;20630;-84
2022/01/07 13:01:53;;;;;;;11.87;2.10;;;;;;;;;;5129208;27;20221;-84
2022/01/07 13:04:22;;;;;;;12.20;2.43;;;;;;;;;;5115842;27;20273;-84
2022/01/07 13:06:50;;;;;;;11.90;2.63;;;;;;;;;;5123113;28;20253;-83
2022/01/07 13:09:21;;;;;;;11.87;2.30;;;;;;;;;;5120490;27;20701;-83
2022/01/07 13:11:49;;;;;;;11.30;2.50;;;;;;;;;;5110677;28;20213;-84
2022/01/07 13:14:17;;;;;;;8.20;1.90;;;;;;;;;;5109835;28;20233;-84
2022/01/07 13:16:49;;;;;;;8.77;2.30;;;;;;;;;;5111139;28;20273;-83
2022/01/07 13:19:16;;;;;;;9.97;2.80;;;;;;;;;;5118227;28;20280;-84
2022/01/07 13:21:45;;;;;;;9.57;2.50;;;;;;;;;;5118976;27;20709;-84
2022/01/07 13:24:16;;;;;;;11.97;3.00;;;;;;;;;;5129735;27;20193;-82
2022/01/07 13:26:44;;;;;;;10.17;2.77;;;;;;;;;;5110445;28;20438;-82
2022/01/07 13:29:15;;;;;;;11.47;2.60;;;;;;;;;;5112395;28;20688;-82
2022/01/07 13:31:44;;;;;;;10.40;2.43;;;;;;;;;;5119176;28;20223;-82
2022/01/07 13:34:12;;;;;;;11.43;2.80;;;;;;;;;;5127723;28;20607;-81
2022/01/07 13:36:42;;;;;;;8.70;2.30;;;;;;;;;;5120381;27;20273;-82
2022/01/07 13:39:11;;;;;;;13.97;2.70;;;;;;;;;;5110612;28;20688;-82
2022/01/07 13:41:53;;;;;;;14.07;3.47;;;;;;;;;;5118428;28;20286;-82
2022/01/07 13:44:20;;;;;;;12.70;2.83;;;;;;;;;;5117083;28;20296;-82
2022/01/07 13:46:50;;;;;;;11.83;2.90;;;;;;;;;;5121354;27;20288;-83
2022/01/07 13:49:19;;;;;;;15.60;2.70;;;;;;;;;;5121613;27;20283;-83
2022/01/07 13:51:55;;;;;;;10.70;3.10;;;;;;;;;;5124373;27;20304;-83
2022/01/07 13:54:25;;;;;;;11.00;2.80;;;;;;;;;;5124695;27;20244;-83
2022/01/07 13:56:57;;;;;;;14.60;2.83;;;;;;;;;;5126339;27;20632;-83
2022/01/07 13:59:27;;;;;;;13.60;2.67;;;;;;;;;;5130134;27;20755;-83
2022/01/07 14:01:59;;;;;;;11.27;2.80;;;;;;;;;;5122519;27;20224;-83
2022/01/07 14:04:48;;;;;;;12.27;2.37;;;;;;;;;;5126422;27;20276;-83
2022/01/07 14:07:36;;;;;;;12.80;2.37;;;;;;;;;;5121997;27;20217;-83
2022/01/07 14:10:08;;;;;;;12.67;2.83;;;;;;;;;;5116548;27;20193;-83
2022/01/07 14:12:36;;;;;;;9.90;2.47;;;;;;;;;;5125564;27;20253;-82
2022/01/07 14:15:04;;;;;;;14.43;2.50;;;;;;;;;;5132897;27;20216;-83
2022/01/07 14:17:31;;;;;;;14.93;2.70;;;;;;;;;;5121977;27;20205;-83
2022/01/07 14:20:03;;;;;;;12.93;2.90;;;;;;;;;;5119083;27;20197;-83
2022/01/07 14:22:30;;;;;;;12.07;3.03;;;;;;;;;;5117842;27;20250;-83
2022/01/07 14:24:58;;;;;;;9.07;2.63;;;;;;;;;;5127864;27;20201;-83
2022/01/07 14:27:26;;;;;;;11.90;3.27;;;;;;;;;;5125328;27;20572;-84
2022/01/07 14:29:53;;;;;;;19.47;6.47;;;;;;;;;;5126745;27;20283;-83
2022/01/07 14:32:21;;;;;;;15.33;4.43;;;;;;;;;;5120263;27;20308;-84
2022/01/07 14:34:48;;;;;;;12.43;2.83;;;;;;;;;;5116820;27;20198;-83
2022/01/07 14:37:16;;;;;;;12.63;2.80;;;;;;;;;;5123548;27;20284;-83
2022/01/07 14:39:45;;;;;;;10.70;3.00;;;;;;;;;;5125482;27;20280;-83
2022/01/07 14:42:12;;;;;;;14.30;2.83;;;;;;;;;;5113901;27;20656;-83
2022/01/07 14:44:39;;;;;;;11.77;2.57;;;;;;;;;;5121290;27;20676;-83
2022/01/07 14:47:07;;;;;;;10.33;2.40;;;;;;;;;;5119246;27;20221;-82
2022/01/07 14:49:34;;;;;;;19.40;3.83;;;;;;;;;;5119212;27;20204;-83
2022/01/07 14:52:01;;;;;;;10.67;3.30;;;;;;;;;;5129918;27;20311;-83
2022/01/07 14:54:30;;;;;;;18.83;5.03;;;;;;;;;;5130622;27;20272;-83
2022/01/07 14:56:57;;;;;;;16.53;3.60;;;;;;;;;;5126462;27;20308;-83
2022/01/07 14:59:24;;;;;;;13.93;3.30;;;;;;;;;;5121278;27;20284;-83